CDT,Max TemperatureF,Mean TemperatureF,Min TemperatureF,Max Dew PointF,MeanDew PointF,Min DewpointF,Max Humidity, Mean Humidity, Min Humidity, Max Sea Level PressureIn, Mean Sea Level PressureIn, Min Sea Level PressureIn, Max VisibilityMiles, Mean VisibilityMiles, Min VisibilityMiles, Max Wind SpeedMPH, Mean Wind SpeedMPH, Max Gust SpeedMPH,PrecipitationIn, CloudCover, Events, WindDirDegrees
2013-3-1,27,22,17,21,19,14,88,81,71,30.26,30.19,30.11,10,8,2,18,12,23,0.00,7,Snow,346
2013-3-2,25,16,8,15,10,2,93,75,59,30.25,30.22,30.17,10,10,7,10,4,,0.00,0,,323
2013-3-3,28,16,5,15,8,1,85,69,51,30.17,30.12,30.09,10,10,10,5,0,,0.00,0,,81
2013-3-4,33,24,15,28,20,10,85,78,70,30.11,30.04,29.96,10,10,10,22,9,26,0.00,6,,77
2013-3-5,33,30,25,32,28,21,94,90,82,30.10,29.94,29.84,10,3,0,16,9,22,0.12,8,Rain-Snow,7
2013-3-6,33,28,23,27,23,20,87,81,75,30.33,30.27,30.11,10,10,10,17,11,22,0.05,7,,286
2013-3-7,32,24,16,25,21,14,91,80,69,30.42,30.39,30.32,10,10,5,8,2,,0.01,5,,245
2013-3-8,36,24,12,29,21,10,93,85,73,30.46,30.39,30.27,10,6,0,13,3,,0.00,0,Fog,104
2013-3-9,39,34,28,36,33,25,93,86,81,30.26,30.02,29.80,10,8,2,21,11,26,0.08,7,Rain-Snow,118
2013-3-10,39,38,36,37,37,35,95,94,89,29.80,29.71,29.60,7,1,0,15,6,16,0.70,8,Fog-Rain,97
2013-3-11,36,34,33,35,32,30,94,92,85,29.82,29.65,29.59,10,5,0,21,7,26,0.05,8,Fog-Rain-Snow,268
2013-3-12,34,29,24,31,24,18,90,81,68,30.06,29.93,29.82,10,8,2,23,13,32,0.00,6,Snow,248
2013-3-13,31,26,21,19,16,10,84,66,40,30.34,30.25,30.06,10,10,10,20,13,24,0.00,2,,280
2013-3-14,34,26,18,32,24,15,93,85,72,30.34,30.23,30.07,10,9,1,14,5,,0.02,4,Snow,149
2013-3-15,36,30,25,34,31,24,93,92,89,30.08,29.91,29.77,7,3,1,15,3,17,0.04,4,Rain,44
2013-3-16,33,30,27,32,27,23,93,84,73,30.14,29.97,29.75,10,9,4,16,10,20,0.00,8,,339
2013-3-17,35,28,21,27,22,14,86,75,69,30.23,30.13,29.97,10,10,10,17,11,21,0.00,2,,43
2013-3-18,33,26,19,32,25,12,92,85,72,29.97,29.76,29.63,10,6,1,25,10,36,0.06,7,Snow,141
2013-3-19,30,22,14,16,12,7,81,67,53,30.11,29.98,29.82,10,10,7,25,18,37,0.00,3,Snow,250
2013-3-20,23,16,10,11,7,1,76,64,55,30.14,30.10,30.05,10,10,10,23,17,33,0.00,1,,274
2013-3-21,28,20,11,16,10,5,83,67,53,30.08,30.06,30.03,10,10,10,10,6,,0.00,0,,282
2013-3-22,33,23,13,23,16,10,86,68,43,30.08,30.06,30.03,10,10,10,7,1,,0.00,0,,335
2013-3-23,38,30,21,30,23,19,91,72,45,30.14,30.09,30.04,10,10,5,10,2,,0.00,2,,22
2013-3-24,33,32,31,31,28,23,92,85,72,30.06,29.87,29.76,10,8,1,20,11,28,0.00,8,Snow,6
2013-3-25,36,32,27,28,25,21,86,76,70,30.12,29.95,29.82,10,10,10,18,13,26,0.00,8,,322
2013-3-26,40,36,32,28,26,24,78,68,57,30.29,30.21,30.12,10,10,10,13,8,,0.00,7,,290
2013-3-27,43,36,27,31,25,18,85,66,38,30.35,30.32,30.29,10,10,10,10,4,,0.00,5,,259
2013-3-28,46,36,27,32,26,17,86,65,38,30.38,30.34,30.30,10,10,10,6,2,,0.00,2,,244
2013-3-29,54,42,31,33,29,26,93,65,37,30.34,30.29,30.24,10,10,10,6,1,,0.00,1,,48
2013-3-30,56,44,33,44,36,27,93,75,56,30.24,30.04,29.86,10,10,2,22,8,28,0.00,4,Rain,164
2013-3-31,54,44,33,42,35,24,93,75,50,29.95,29.83,29.77,10,8,2,26,11,32,0.00,4,,262